sensor_id;sensor_type;location;lat;lon;timestamp;P1;durP1;ratioP1;P2;durP2;ratioP2
49051;SDS011;34866;48.670;18.260;2023-06-10T00:02:15;6.13;;;1.77;;
49051;SDS011;34866;48.670;18.260;2023-06-10T00:04:42;5.07;;;2.28;;
49051;SDS011;34866;48.670;18.260;2023-06-10T00:07:07;8.55;;;2.92;;
49051;SDS011;34866;48.670;18.260;2023-06-10T00:09:37;5.43;;;2.50;;
49051;SDS011;34866;48.670;18.260;2023-06-10T00:12:07;10.27;;;2.25;;
49051;SDS011;34866;48.670;18.260;2023-06-10T00:14:38;9.60;;;2.72;;
49051;SDS011;34866;48.670;18.260;2023-06-10T00:17:05;13.68;;;2.78;;
49051;SDS011;34866;48.670;18.260;2023-06-10T00:19:38;6.93;;;2.13;;
49051;SDS011;34866;48.670;18.260;2023-06-10T00:22:07;5.43;;;2.58;;
49051;SDS011;34866;48.670;18.260;2023-06-10T00:24:34;11.38;;;1.95;;
49051;SDS011;34866;48.670;18.260;2023-06-10T00:27:00;11.77;;;2.50;;
49051;SDS011;34866;48.670;18.260;2023-06-10T00:29:26;6.70;;;2.47;;
49051;SDS011;34866;48.670;18.260;2023-06-10T00:31:51;11.35;;;3.40;;
49051;SDS011;34866;48.670;18.260;2023-06-10T00:34:22;6.18;;;2.00;;
49051;SDS011;34866;48.670;18.260;2023-06-10T00:36:51;13.38;;;2.30;;
49051;SDS011;34866;48.670;18.260;2023-06-10T00:39:17;4.85;;;2.03;;
49051;SDS011;34866;48.670;18.260;2023-06-10T00:41:42;4.45;;;1.92;;
49051;SDS011;34866;48.670;18.260;2023-06-10T00:44:08;5.80;;;2.05;;
49051;SDS011;34866;48.670;18.260;2023-06-10T00:46:34;7.00;;;2.10;;
49051;SDS011;34866;48.670;18.260;2023-06-10T00:49:01;4.65;;;2.38;;
49051;SDS011;34866;48.670;18.260;2023-06-10T00:51:27;4.82;;;2.15;;
49051;SDS011;34866;48.670;18.260;2023-06-10T00:53:53;10.43;;;2.05;;
49051;SDS011;34866;48.670;18.260;2023-06-10T00:56:20;11.35;;;4.13;;
49051;SDS011;34866;48.670;18.260;2023-06-10T00:58:48;20.33;;;2.13;;
49051;SDS011;34866;48.670;18.260;2023-06-10T01:01:15;3.78;;;1.92;;
49051;SDS011;34866;48.670;18.260;2023-06-10T01:03:41;13.55;;;2.70;;
49051;SDS011;34866;48.670;18.260;2023-06-10T01:09:13;6.28;;;2.45;;
49051;SDS011;34866;48.670;18.260;2023-06-10T01:12:05;11.20;;;3.35;;
49051;SDS011;34866;48.670;18.260;2023-06-10T01:14:56;9.32;;;2.78;;
49051;SDS011;34866;48.670;18.260;2023-06-10T01:17:23;11.18;;;2.78;;
49051;SDS011;34866;48.670;18.260;2023-06-10T01:19:56;10.38;;;2.47;;
49051;SDS011;34866;48.670;18.260;2023-06-10T01:22:25;9.50;;;2.65;;
49051;SDS011;34866;48.670;18.260;2023-06-10T01:25:01;6.60;;;3.63;;
49051;SDS011;34866;48.670;18.260;2023-06-10T01:27:30;8.05;;;2.40;;
49051;SDS011;34866;48.670;18.260;2023-06-10T01:30:06;13.32;;;3.35;;
49051;SDS011;34866;48.670;18.260;2023-06-10T01:32:40;5.82;;;2.13;;
49051;SDS011;34866;48.670;18.260;2023-06-10T01:35:10;9.18;;;2.30;;
49051;SDS011;34866;48.670;18.260;2023-06-10T01:37:38;4.70;;;2.35;;
49051;SDS011;34866;48.670;18.260;2023-06-10T01:40:05;9.13;;;2.28;;
49051;SDS011;34866;48.670;18.260;2023-06-10T01:42:32;6.60;;;2.20;;
49051;SDS011;34866;48.670;18.260;2023-06-10T01:44:58;6.25;;;2.10;;
49051;SDS011;34866;48.670;18.260;2023-06-10T01:47:24;5.25;;;2.17;;
49051;SDS011;34866;48.670;18.260;2023-06-10T01:49:50;7.93;;;1.98;;
49051;SDS011;34866;48.670;18.260;2023-06-10T01:52:16;12.18;;;3.47;;
49051;SDS011;34866;48.670;18.260;2023-06-10T01:54:41;22.88;;;3.03;;
49051;SDS011;34866;48.670;18.260;2023-06-10T01:57:16;7.45;;;2.28;;
49051;SDS011;34866;48.670;18.260;2023-06-10T02:02:12;11.52;;;2.53;;
49051;SDS011;34866;48.670;18.260;2023-06-10T02:04:38;4.78;;;2.10;;
49051;SDS011;34866;48.670;18.260;2023-06-10T02:07:05;6.95;;;2.40;;
49051;SDS011;34866;48.670;18.260;2023-06-10T02:09:32;6.35;;;2.42;;
49051;SDS011;34866;48.670;18.260;2023-06-10T02:12:01;10.82;;;2.33;;
49051;SDS011;34866;48.670;18.260;2023-06-10T02:14:32;6.82;;;1.77;;
49051;SDS011;34866;48.670;18.260;2023-06-10T02:16:58;10.98;;;2.17;;
49051;SDS011;34866;48.670;18.260;2023-06-10T02:19:36;5.65;;;2.40;;
49051;SDS011;34866;48.670;18.260;2023-06-10T02:22:02;9.35;;;2.40;;
49051;SDS011;34866;48.670;18.260;2023-06-10T02:24:28;6.80;;;2.40;;
49051;SDS011;34866;48.670;18.260;2023-06-10T02:26:54;7.78;;;1.90;;
49051;SDS011;34866;48.670;18.260;2023-06-10T02:29:20;5.13;;;2.45;;
49051;SDS011;34866;48.670;18.260;2023-06-10T02:31:46;7.10;;;2.65;;
49051;SDS011;34866;48.670;18.260;2023-06-10T02:34:18;5.78;;;2.42;;
49051;SDS011;34866;48.670;18.260;2023-06-10T02:36:45;4.65;;;1.98;;
49051;SDS011;34866;48.670;18.260;2023-06-10T02:39:10;11.05;;;2.13;;
49051;SDS011;34866;48.670;18.260;2023-06-10T02:41:36;6.57;;;1.80;;
49051;SDS011;34866;48.670;18.260;2023-06-10T02:44:03;4.35;;;1.75;;
49051;SDS011;34866;48.670;18.260;2023-06-10T02:46:29;6.90;;;2.28;;
49051;SDS011;34866;48.670;18.260;2023-06-10T02:48:54;7.65;;;1.77;;
49051;SDS011;34866;48.670;18.260;2023-06-10T02:51:23;4.40;;;2.05;;
49051;SDS011;34866;48.670;18.260;2023-06-10T02:53:49;8.25;;;3.72;;
49051;SDS011;34866;48.670;18.260;2023-06-10T02:56:16;4.30;;;2.10;;
49051;SDS011;34866;48.670;18.260;2023-06-10T02:58:43;7.30;;;1.88;;
49051;SDS011;34866;48.670;18.260;2023-06-10T03:01:12;6.75;;;2.40;;
49051;SDS011;34866;48.670;18.260;2023-06-10T03:03:38;5.13;;;2.25;;
49051;SDS011;34866;48.670;18.260;2023-06-10T03:06:09;19.50;;;2.22;;
49051;SDS011;34866;48.670;18.260;2023-06-10T03:08:39;4.85;;;1.88;;
49051;SDS011;34866;48.670;18.260;2023-06-10T03:11:11;5.32;;;2.08;;
49051;SDS011;34866;48.670;18.260;2023-06-10T03:13:38;8.65;;;1.75;;
49051;SDS011;34866;48.670;18.260;2023-06-10T03:16:08;3.88;;;1.70;;
49051;SDS011;34866;48.670;18.260;2023-06-10T03:18:34;8.07;;;2.72;;
49051;SDS011;34866;48.670;18.260;2023-06-10T03:21:20;7.32;;;2.40;;
49051;SDS011;34866;48.670;18.260;2023-06-10T03:23:49;7.93;;;2.67;;
49051;SDS011;34866;48.670;18.260;2023-06-10T03:26:37;6.82;;;2.13;;
49051;SDS011;34866;48.670;18.260;2023-06-10T03:29:24;18.83;;;3.15;;
49051;SDS011;34866;48.670;18.260;2023-06-10T03:31:50;5.10;;;2.13;;
49051;SDS011;34866;48.670;18.260;2023-06-10T03:34:16;4.07;;;1.88;;
49051;SDS011;34866;48.670;18.260;2023-06-10T03:36:43;4.70;;;1.63;;
49051;SDS011;34866;48.670;18.260;2023-06-10T03:39:09;7.88;;;1.98;;
49051;SDS011;34866;48.670;18.260;2023-06-10T03:41:35;10.65;;;1.90;;
49051;SDS011;34866;48.670;18.260;2023-06-10T03:44:03;11.00;;;2.22;;
49051;SDS011;34866;48.670;18.260;2023-06-10T03:46:31;7.78;;;2.15;;
49051;SDS011;34866;48.670;18.260;2023-06-10T03:49:00;3.83;;;1.83;;
49051;SDS011;34866;48.670;18.260;2023-06-10T03:51:26;10.45;;;2.25;;
49051;SDS011;34866;48.670;18.260;2023-06-10T03:53:53;6.43;;;2.28;;
49051;SDS011;34866;48.670;18.260;2023-06-10T03:56:19;2.90;;;1.55;;
49051;SDS011;34866;48.670;18.260;2023-06-10T03:58:44;15.55;;;1.90;;
49051;SDS011;34866;48.670;18.260;2023-06-10T04:01:15;6.80;;;1.90;;
49051;SDS011;34866;48.670;18.260;2023-06-10T04:03:43;4.80;;;2.10;;
49051;SDS011;34866;48.670;18.260;2023-06-10T04:06:09;5.00;;;1.77;;
49051;SDS011;34866;48.670;18.260;2023-06-10T04:08:34;9.80;;;2.00;;
49051;SDS011;34866;48.670;18.260;2023-06-10T04:11:01;5.40;;;1.80;;
49051;SDS011;34866;48.670;18.260;2023-06-10T04:13:27;9.48;;;2.15;;
49051;SDS011;34866;48.670;18.260;2023-06-10T04:15:53;5.72;;;2.20;;
49051;SDS011;34866;48.670;18.260;2023-06-10T04:18:19;5.68;;;2.00;;
49051;SDS011;34866;48.670;18.260;2023-06-10T04:20:46;7.50;;;2.30;;
49051;SDS011;34866;48.670;18.260;2023-06-10T04:23:14;4.70;;;2.30;;
49051;SDS011;34866;48.670;18.260;2023-06-10T04:25:39;8.77;;;2.50;;
49051;SDS011;34866;48.670;18.260;2023-06-10T04:28:05;11.02;;;2.90;;
49051;SDS011;34866;48.670;18.260;2023-06-10T04:30:31;6.93;;;2.45;;
49051;SDS011;34866;48.670;18.260;2023-06-10T04:32:56;4.90;;;2.28;;
49051;SDS011;34866;48.670;18.260;2023-06-10T04:35:23;9.50;;;2.75;;
49051;SDS011;34866;48.670;18.260;2023-06-10T04:37:49;6.85;;;2.47;;
49051;SDS011;34866;48.670;18.260;2023-06-10T04:40:15;5.97;;;2.67;;
49051;SDS011;34866;48.670;18.260;2023-06-10T04:42:41;12.25;;;3.10;;
49051;SDS011;34866;48.670;18.260;2023-06-10T04:45:07;5.43;;;2.45;;
49051;SDS011;34866;48.670;18.260;2023-06-10T04:47:36;13.93;;;2.85;;
49051;SDS011;34866;48.670;18.260;2023-06-10T04:50:02;5.20;;;2.47;;
49051;SDS011;34866;48.670;18.260;2023-06-10T04:52:28;8.55;;;2.45;;
49051;SDS011;34866;48.670;18.260;2023-06-10T04:54:54;5.00;;;2.33;;
49051;SDS011;34866;48.670;18.260;2023-06-10T04:57:20;6.75;;;2.42;;
49051;SDS011;34866;48.670;18.260;2023-06-10T04:59:46;5.30;;;2.50;;
49051;SDS011;34866;48.670;18.260;2023-06-10T05:02:12;6.63;;;2.63;;
49051;SDS011;34866;48.670;18.260;2023-06-10T05:04:38;6.47;;;2.80;;
49051;SDS011;34866;48.670;18.260;2023-06-10T05:07:04;11.65;;;2.78;;
49051;SDS011;34866;48.670;18.260;2023-06-10T05:09:30;5.35;;;2.50;;
49051;SDS011;34866;48.670;18.260;2023-06-10T05:11:56;6.80;;;2.75;;
49051;SDS011;34866;48.670;18.260;2023-06-10T05:14:22;5.57;;;2.50;;
49051;SDS011;34866;48.670;18.260;2023-06-10T05:16:48;6.35;;;2.90;;
49051;SDS011;34866;48.670;18.260;2023-06-10T05:19:16;4.97;;;2.67;;
49051;SDS011;34866;48.670;18.260;2023-06-10T05:21:44;5.75;;;2.92;;
49051;SDS011;34866;48.670;18.260;2023-06-10T05:24:10;6.93;;;2.20;;
49051;SDS011;34866;48.670;18.260;2023-06-10T05:26:36;9.48;;;2.30;;
49051;SDS011;34866;48.670;18.260;2023-06-10T05:29:05;5.72;;;2.83;;
49051;SDS011;34866;48.670;18.260;2023-06-10T05:31:31;5.97;;;3.05;;
49051;SDS011;34866;48.670;18.260;2023-06-10T05:33:56;4.95;;;2.28;;
49051;SDS011;34866;48.670;18.260;2023-06-10T05:36:22;6.75;;;3.10;;
49051;SDS011;34866;48.670;18.260;2023-06-10T05:38:50;7.47;;;3.28;;
49051;SDS011;34866;48.670;18.260;2023-06-10T05:41:16;6.15;;;2.53;;
49051;SDS011;34866;48.670;18.260;2023-06-10T05:43:41;5.78;;;2.72;;
49051;SDS011;34866;48.670;18.260;2023-06-10T05:46:07;4.88;;;2.28;;
49051;SDS011;34866;48.670;18.260;2023-06-10T05:48:33;8.32;;;2.50;;
49051;SDS011;34866;48.670;18.260;2023-06-10T05:50:59;5.35;;;2.47;;
49051;SDS011;34866;48.670;18.260;2023-06-10T05:53:24;7.00;;;2.50;;
49051;SDS011;34866;48.670;18.260;2023-06-10T05:55:50;7.65;;;2.05;;
49051;SDS011;34866;48.670;18.260;2023-06-10T05:58:19;4.60;;;2.10;;
49051;SDS011;34866;48.670;18.260;2023-06-10T06:00:45;3.95;;;1.90;;
49051;SDS011;34866;48.670;18.260;2023-06-10T06:03:11;5.07;;;2.22;;
49051;SDS011;34866;48.670;18.260;2023-06-10T06:05:40;3.67;;;1.80;;
49051;SDS011;34866;48.670;18.260;2023-06-10T06:08:06;4.45;;;2.00;;
49051;SDS011;34866;48.670;18.260;2023-06-10T06:10:35;6.60;;;1.90;;
49051;SDS011;34866;48.670;18.260;2023-06-10T06:13:01;8.32;;;2.83;;
49051;SDS011;34866;48.670;18.260;2023-06-10T06:15:27;4.75;;;2.40;;
49051;SDS011;34866;48.670;18.260;2023-06-10T06:17:53;5.35;;;2.45;;
49051;SDS011;34866;48.670;18.260;2023-06-10T06:20:19;7.07;;;2.28;;
49051;SDS011;34866;48.670;18.260;2023-06-10T06:22:45;4.57;;;2.20;;
49051;SDS011;34866;48.670;18.260;2023-06-10T06:25:11;3.78;;;1.83;;
49051;SDS011;34866;48.670;18.260;2023-06-10T06:27:37;3.90;;;2.15;;
49051;SDS011;34866;48.670;18.260;2023-06-10T06:30:04;6.75;;;1.75;;
49051;SDS011;34866;48.670;18.260;2023-06-10T06:32:30;4.35;;;2.10;;
49051;SDS011;34866;48.670;18.260;2023-06-10T06:34:56;4.85;;;2.55;;
49051;SDS011;34866;48.670;18.260;2023-06-10T06:37:22;4.15;;;2.08;;
49051;SDS011;34866;48.670;18.260;2023-06-10T06:39:51;4.20;;;1.73;;
49051;SDS011;34866;48.670;18.260;2023-06-10T06:42:18;4.40;;;2.00;;
49051;SDS011;34866;48.670;18.260;2023-06-10T06:44:46;7.95;;;1.95;;
49051;SDS011;34866;48.670;18.260;2023-06-10T06:47:12;7.70;;;2.40;;
49051;SDS011;34866;48.670;18.260;2023-06-10T06:49:38;4.80;;;2.40;;
49051;SDS011;34866;48.670;18.260;2023-06-10T06:52:07;6.05;;;2.80;;
49051;SDS011;34866;48.670;18.260;2023-06-10T06:54:33;5.22;;;2.47;;
49051;SDS011;34866;48.670;18.260;2023-06-10T06:57:00;4.15;;;1.88;;
49051;SDS011;34866;48.670;18.260;2023-06-10T06:59:27;5.05;;;1.70;;
49051;SDS011;34866;48.670;18.260;2023-06-10T07:01:53;5.65;;;2.75;;
49051;SDS011;34866;48.670;18.260;2023-06-10T07:04:20;4.55;;;1.98;;
49051;SDS011;34866;48.670;18.260;2023-06-10T07:06:54;9.40;;;2.25;;
49051;SDS011;34866;48.670;18.260;2023-06-10T07:09:20;5.43;;;1.80;;
49051;SDS011;34866;48.670;18.260;2023-06-10T07:11:46;4.07;;;1.50;;
49051;SDS011;34866;48.670;18.260;2023-06-10T07:14:11;4.65;;;2.00;;
49051;SDS011;34866;48.670;18.260;2023-06-10T07:16:40;3.90;;;1.73;;
49051;SDS011;34866;48.670;18.260;2023-06-10T07:19:09;4.22;;;2.13;;
49051;SDS011;34866;48.670;18.260;2023-06-10T07:21:35;5.05;;;2.03;;
49051;SDS011;34866;48.670;18.260;2023-06-10T07:24:06;4.28;;;2.10;;
49051;SDS011;34866;48.670;18.260;2023-06-10T07:26:38;4.88;;;1.80;;
49051;SDS011;34866;48.670;18.260;2023-06-10T07:32:03;3.80;;;1.90;;
49051;SDS011;34866;48.670;18.260;2023-06-10T07:34:29;3.92;;;1.88;;
49051;SDS011;34866;48.670;18.260;2023-06-10T07:37:00;4.10;;;2.22;;
49051;SDS011;34866;48.670;18.260;2023-06-10T07:39:49;4.43;;;1.67;;
49051;SDS011;34866;48.670;18.260;2023-06-10T07:42:14;4.70;;;2.00;;
49051;SDS011;34866;48.670;18.260;2023-06-10T07:44:42;5.47;;;2.00;;
49051;SDS011;34866;48.670;18.260;2023-06-10T07:47:11;4.22;;;2.13;;
49051;SDS011;34866;48.670;18.260;2023-06-10T07:49:40;4.38;;;2.08;;
49051;SDS011;34866;48.670;18.260;2023-06-10T07:52:21;3.13;;;1.65;;
49051;SDS011;34866;48.670;18.260;2023-06-10T07:57:38;4.03;;;1.75;;
49051;SDS011;34866;48.670;18.260;2023-06-10T08:00:09;6.40;;;1.90;;
49051;SDS011;34866;48.670;18.260;2023-06-10T08:02:36;4.18;;;1.73;;
49051;SDS011;34866;48.670;18.260;2023-06-10T08:05:15;4.20;;;1.73;;
49051;SDS011;34866;48.670;18.260;2023-06-10T08:07:54;6.85;;;1.73;;
49051;SDS011;34866;48.670;18.260;2023-06-10T08:10:43;3.95;;;2.03;;
49051;SDS011;34866;48.670;18.260;2023-06-10T08:21:59;3.75;;;1.52;;
49051;SDS011;34866;48.670;18.260;2023-06-10T08:28:31;3.30;;;1.55;;
49051;SDS011;34866;48.670;18.260;2023-06-10T08:31:18;3.97;;;1.90;;
49051;SDS011;34866;48.670;18.260;2023-06-10T08:36:25;3.58;;;1.75;;
49051;SDS011;34866;48.670;18.260;2023-06-10T08:42:32;5.07;;;2.05;;
49051;SDS011;34866;48.670;18.260;2023-06-10T08:45:07;3.47;;;1.55;;
49051;SDS011;34866;48.670;18.260;2023-06-10T08:48:03;3.83;;;1.70;;
49051;SDS011;34866;48.670;18.260;2023-06-10T08:50:48;4.95;;;1.70;;
49051;SDS011;34866;48.670;18.260;2023-06-10T08:53:21;4.10;;;1.83;;
49051;SDS011;34866;48.670;18.260;2023-06-10T09:02:08;6.20;;;1.88;;
49051;SDS011;34866;48.670;18.260;2023-06-10T09:04:42;3.40;;;1.85;;
49051;SDS011;34866;48.670;18.260;2023-06-10T09:20:27;3.72;;;1.50;;
49051;SDS011;34866;48.670;18.260;2023-06-10T09:29:12;4.00;;;1.58;;
49051;SDS011;34866;48.670;18.260;2023-06-10T09:32:06;5.80;;;1.60;;
49051;SDS011;34866;48.670;18.260;2023-06-10T09:34:56;3.92;;;1.23;;
49051;SDS011;34866;48.670;18.260;2023-06-10T09:43:43;3.22;;;1.35;;
49051;SDS011;34866;48.670;18.260;2023-06-10T09:47:00;3.88;;;1.60;;
49051;SDS011;34866;48.670;18.260;2023-06-10T09:49:59;4.07;;;1.65;;
49051;SDS011;34866;48.670;18.260;2023-06-10T09:52:27;5.38;;;1.80;;
49051;SDS011;34866;48.670;18.260;2023-06-10T09:55:16;3.92;;;2.05;;
49051;SDS011;34866;48.670;18.260;2023-06-10T09:57:49;3.70;;;1.60;;
49051;SDS011;34866;48.670;18.260;2023-06-10T10:00:23;3.83;;;1.55;;
49051;SDS011;34866;48.670;18.260;2023-06-10T10:02:52;3.25;;;1.65;;
49051;SDS011;34866;48.670;18.260;2023-06-10T10:08:14;4.90;;;1.60;;
49051;SDS011;34866;48.670;18.260;2023-06-10T10:10:41;4.05;;;1.85;;
49051;SDS011;34866;48.670;18.260;2023-06-10T10:13:32;4.03;;;1.63;;
49051;SDS011;34866;48.670;18.260;2023-06-10T10:18:56;5.70;;;1.85;;
49051;SDS011;34866;48.670;18.260;2023-06-10T10:21:32;4.15;;;2.13;;
49051;SDS011;34866;48.670;18.260;2023-06-10T10:24:05;4.32;;;1.88;;
49051;SDS011;34866;48.670;18.260;2023-06-10T10:26:46;4.60;;;2.13;;
49051;SDS011;34866;48.670;18.260;2023-06-10T10:31:50;3.70;;;1.90;;
49051;SDS011;34866;48.670;18.260;2023-06-10T10:37:30;3.92;;;1.90;;
49051;SDS011;34866;48.670;18.260;2023-06-10T10:39:57;4.72;;;1.92;;
49051;SDS011;34866;48.670;18.260;2023-06-10T10:42:25;3.95;;;2.15;;
49051;SDS011;34866;48.670;18.260;2023-06-10T10:44:51;5.40;;;2.00;;
49051;SDS011;34866;48.670;18.260;2023-06-10T10:47:21;4.38;;;1.88;;
49051;SDS011;34866;48.670;18.260;2023-06-10T10:49:51;5.45;;;2.08;;
49051;SDS011;34866;48.670;18.260;2023-06-10T10:52:18;4.30;;;1.85;;
49051;SDS011;34866;48.670;18.260;2023-06-10T10:54:45;4.45;;;2.08;;
49051;SDS011;34866;48.670;18.260;2023-06-10T10:57:20;4.53;;;2.10;;
49051;SDS011;34866;48.670;18.260;2023-06-10T11:00:02;3.80;;;1.92;;
49051;SDS011;34866;48.670;18.260;2023-06-10T11:02:46;4.15;;;2.13;;
49051;SDS011;34866;48.670;18.260;2023-06-10T11:05:20;4.75;;;2.10;;
49051;SDS011;34866;48.670;18.260;2023-06-10T11:11:42;3.75;;;1.90;;
49051;SDS011;34866;48.670;18.260;2023-06-10T11:17:02;5.88;;;2.33;;
49051;SDS011;34866;48.670;18.260;2023-06-10T11:28:21;6.40;;;2.88;;
49051;SDS011;34866;48.670;18.260;2023-06-10T11:30:56;5.75;;;2.60;;
49051;SDS011;34866;48.670;18.260;2023-06-10T11:33:26;6.22;;;2.47;;
49051;SDS011;34866;48.670;18.260;2023-06-10T11:38:28;4.57;;;2.35;;
49051;SDS011;34866;48.670;18.260;2023-06-10T11:40:54;4.90;;;2.40;;
49051;SDS011;34866;48.670;18.260;2023-06-10T11:43:30;5.45;;;2.97;;
49051;SDS011;34866;48.670;18.260;2023-06-10T11:45:56;5.85;;;2.97;;
49051;SDS011;34866;48.670;18.260;2023-06-10T11:51:36;5.63;;;2.53;;
49051;SDS011;34866;48.670;18.260;2023-06-10T11:54:51;5.50;;;2.72;;
49051;SDS011;34866;48.670;18.260;2023-06-10T11:57:25;4.50;;;2.55;;
49051;SDS011;34866;48.670;18.260;2023-06-10T11:59:53;4.32;;;2.47;;
49051;SDS011;34866;48.670;18.260;2023-06-10T12:02:24;5.68;;;2.78;;
49051;SDS011;34866;48.670;18.260;2023-06-10T12:04:50;5.72;;;2.88;;
49051;SDS011;34866;48.670;18.260;2023-06-10T12:07:22;5.90;;;2.67;;
49051;SDS011;34866;48.670;18.260;2023-06-10T12:10:07;8.07;;;2.70;;
49051;SDS011;34866;48.670;18.260;2023-06-10T12:16:10;5.57;;;2.58;;
49051;SDS011;34866;48.670;18.260;2023-06-10T12:21:43;13.57;;;2.75;;
49051;SDS011;34866;48.670;18.260;2023-06-10T12:24:10;12.93;;;3.45;;
49051;SDS011;34866;48.670;18.260;2023-06-10T12:26:42;7.53;;;3.30;;
49051;SDS011;34866;48.670;18.260;2023-06-10T12:29:30;8.95;;;3.60;;
49051;SDS011;34866;48.670;18.260;2023-06-10T12:34:40;10.98;;;3.45;;
49051;SDS011;34866;48.670;18.260;2023-06-10T12:37:29;5.60;;;3.00;;
49051;SDS011;34866;48.670;18.260;2023-06-10T12:42:39;5.75;;;2.88;;
49051;SDS011;34866;48.670;18.260;2023-06-10T12:45:09;7.60;;;3.22;;
49051;SDS011;34866;48.670;18.260;2023-06-10T12:47:37;9.20;;;3.80;;
49051;SDS011;34866;48.670;18.260;2023-06-10T12:50:10;5.88;;;2.90;;
49051;SDS011;34866;48.670;18.260;2023-06-10T12:52:46;3.92;;;2.00;;
49051;SDS011;34866;48.670;18.260;2023-06-10T12:55:11;4.10;;;1.63;;
49051;SDS011;34866;48.670;18.260;2023-06-10T12:57:52;3.70;;;1.60;;
49051;SDS011;34866;48.670;18.260;2023-06-10T13:00:19;4.00;;;1.98;;
49051;SDS011;34866;48.670;18.260;2023-06-10T13:02:45;6.22;;;1.85;;
49051;SDS011;34866;48.670;18.260;2023-06-10T13:05:23;10.30;;;2.03;;
49051;SDS011;34866;48.670;18.260;2023-06-10T13:07:54;3.58;;;1.90;;
49051;SDS011;34866;48.670;18.260;2023-06-10T13:10:20;7.97;;;2.38;;
49051;SDS011;34866;48.670;18.260;2023-06-10T13:12:47;4.28;;;2.20;;
49051;SDS011;34866;48.670;18.260;2023-06-10T13:15:12;3.65;;;1.98;;
49051;SDS011;34866;48.670;18.260;2023-06-10T13:17:43;4.25;;;2.20;;
49051;SDS011;34866;48.670;18.260;2023-06-10T13:20:11;4.90;;;2.50;;
49051;SDS011;34866;48.670;18.260;2023-06-10T13:22:37;4.47;;;2.00;;
49051;SDS011;34866;48.670;18.260;2023-06-10T13:25:03;4.70;;;2.40;;
49051;SDS011;34866;48.670;18.260;2023-06-10T13:27:33;9.15;;;2.50;;
49051;SDS011;34866;48.670;18.260;2023-06-10T13:30:00;4.93;;;2.58;;
49051;SDS011;34866;48.670;18.260;2023-06-10T13:32:26;7.30;;;3.58;;
49051;SDS011;34866;48.670;18.260;2023-06-10T13:34:51;5.65;;;2.65;;
49051;SDS011;34866;48.670;18.260;2023-06-10T13:37:18;6.25;;;2.95;;
49051;SDS011;34866;48.670;18.260;2023-06-10T13:39:45;7.30;;;3.70;;
49051;SDS011;34866;48.670;18.260;2023-06-10T13:42:16;5.90;;;2.80;;
49051;SDS011;34866;48.670;18.260;2023-06-10T13:44:42;8.20;;;3.05;;
49051;SDS011;34866;48.670;18.260;2023-06-10T13:47:13;6.05;;;2.40;;
49051;SDS011;34866;48.670;18.260;2023-06-10T13:50:23;7.30;;;2.83;;
49051;SDS011;34866;48.670;18.260;2023-06-10T13:56:24;8.40;;;3.08;;
49051;SDS011;34866;48.670;18.260;2023-06-10T13:58:51;4.80;;;2.22;;
49051;SDS011;34866;48.670;18.260;2023-06-10T14:01:40;4.82;;;2.53;;
49051;SDS011;34866;48.670;18.260;2023-06-10T14:06:53;4.93;;;2.70;;
49051;SDS011;34866;48.670;18.260;2023-06-10T14:09:21;6.30;;;2.90;;
49051;SDS011;34866;48.670;18.260;2023-06-10T14:11:52;7.22;;;2.88;;
49051;SDS011;34866;48.670;18.260;2023-06-10T14:14:23;6.55;;;3.22;;
49051;SDS011;34866;48.670;18.260;2023-06-10T14:16:52;4.90;;;2.40;;
49051;SDS011;34866;48.670;18.260;2023-06-10T14:19:41;5.78;;;2.58;;
49051;SDS011;34866;48.670;18.260;2023-06-10T14:22:10;7.28;;;3.60;;
49051;SDS011;34866;48.670;18.260;2023-06-10T14:24:41;5.65;;;2.50;;
49051;SDS011;34866;48.670;18.260;2023-06-10T14:31:09;6.85;;;2.95;;
49051;SDS011;34866;48.670;18.260;2023-06-10T14:33:40;9.40;;;2.80;;
49051;SDS011;34866;48.670;18.260;2023-06-10T14:36:40;5.70;;;2.70;;
49051;SDS011;34866;48.670;18.260;2023-06-10T14:49:40;7.55;;;2.80;;
49051;SDS011;34866;48.670;18.260;2023-06-10T14:53:04;5.22;;;2.47;;
49051;SDS011;34866;48.670;18.260;2023-06-10T14:56:03;5.18;;;2.47;;
49051;SDS011;34866;48.670;18.260;2023-06-10T14:58:40;4.93;;;2.50;;
49051;SDS011;34866;48.670;18.260;2023-06-10T15:01:50;6.25;;;2.90;;
49051;SDS011;34866;48.670;18.260;2023-06-10T15:05:08;6.68;;;2.60;;
49051;SDS011;34866;48.670;18.260;2023-06-10T15:09:05;5.68;;;2.95;;
49051;SDS011;34866;48.670;18.260;2023-06-10T15:16:10;5.90;;;2.50;;
49051;SDS011;34866;48.670;18.260;2023-06-10T15:18:35;5.22;;;2.38;;
49051;SDS011;34866;48.670;18.260;2023-06-10T15:24:39;6.43;;;2.53;;
49051;SDS011;34866;48.670;18.260;2023-06-10T15:30:11;7.25;;;2.78;;
49051;SDS011;34866;48.670;18.260;2023-06-10T15:40:32;5.43;;;2.50;;
49051;SDS011;34866;48.670;18.260;2023-06-10T15:43:13;6.03;;;2.70;;
49051;SDS011;34866;48.670;18.260;2023-06-10T15:52:25;5.30;;;2.95;;
49051;SDS011;34866;48.670;18.260;2023-06-10T16:01:39;9.35;;;3.42;;
49051;SDS011;34866;48.670;18.260;2023-06-10T16:04:11;5.78;;;3.38;;
49051;SDS011;34866;48.670;18.260;2023-06-10T16:07:11;5.88;;;3.10;;
49051;SDS011;34866;48.670;18.260;2023-06-10T16:09:37;11.02;;;3.58;;
49051;SDS011;34866;48.670;18.260;2023-06-10T16:18:54;6.75;;;3.47;;
49051;SDS011;34866;48.670;18.260;2023-06-10T16:31:32;9.50;;;3.75;;
49051;SDS011;34866;48.670;18.260;2023-06-10T16:34:03;9.50;;;5.28;;
49051;SDS011;34866;48.670;18.260;2023-06-10T16:44:09;10.95;;;4.32;;
49051;SDS011;34866;48.670;18.260;2023-06-10T16:50:09;9.48;;;5.07;;
49051;SDS011;34866;48.670;18.260;2023-06-10T16:53:10;8.55;;;4.60;;
49051;SDS011;34866;48.670;18.260;2023-06-10T16:59:21;9.82;;;5.13;;
49051;SDS011;34866;48.670;18.260;2023-06-10T17:01:52;11.90;;;5.22;;
49051;SDS011;34866;48.670;18.260;2023-06-10T17:04:19;11.05;;;5.50;;
49051;SDS011;34866;48.670;18.260;2023-06-10T17:06:49;12.75;;;5.82;;
49051;SDS011;34866;48.670;18.260;2023-06-10T17:09:37;10.05;;;5.82;;
49051;SDS011;34866;48.670;18.260;2023-06-10T17:12:03;11.05;;;5.50;;
49051;SDS011;34866;48.670;18.260;2023-06-10T17:17:56;14.00;;;7.30;;
49051;SDS011;34866;48.670;18.260;2023-06-10T17:23:53;12.32;;;6.55;;
49051;SDS011;34866;48.670;18.260;2023-06-10T17:26:19;14.05;;;7.43;;
49051;SDS011;34866;48.670;18.260;2023-06-10T17:28:45;11.88;;;7.72;;
49051;SDS011;34866;48.670;18.260;2023-06-10T17:31:30;14.65;;;8.65;;
49051;SDS011;34866;48.670;18.260;2023-06-10T17:34:16;13.43;;;7.32;;
49051;SDS011;34866;48.670;18.260;2023-06-10T17:36:49;11.38;;;7.18;;
49051;SDS011;34866;48.670;18.260;2023-06-10T17:39:15;13.70;;;9.00;;
49051;SDS011;34866;48.670;18.260;2023-06-10T17:41:41;13.50;;;7.57;;
49051;SDS011;34866;48.670;18.260;2023-06-10T17:44:12;15.48;;;8.57;;
49051;SDS011;34866;48.670;18.260;2023-06-10T17:46:57;23.40;;;10.65;;
49051;SDS011;34866;48.670;18.260;2023-06-10T17:49:23;26.60;;;11.15;;
49051;SDS011;34866;48.670;18.260;2023-06-10T17:51:50;21.98;;;9.85;;
49051;SDS011;34866;48.670;18.260;2023-06-10T17:54:16;15.73;;;9.70;;
49051;SDS011;34866;48.670;18.260;2023-06-10T17:56:44;16.90;;;7.57;;
49051;SDS011;34866;48.670;18.260;2023-06-10T18:01:56;12.88;;;7.97;;
49051;SDS011;34866;48.670;18.260;2023-06-10T18:04:24;16.90;;;7.43;;
49051;SDS011;34866;48.670;18.260;2023-06-10T18:06:51;13.43;;;7.60;;
49051;SDS011;34866;48.670;18.260;2023-06-10T18:09:41;17.40;;;8.43;;
49051;SDS011;34866;48.670;18.260;2023-06-10T18:12:10;17.08;;;7.47;;
49051;SDS011;34866;48.670;18.260;2023-06-10T18:14:56;9.27;;;6.18;;
49051;SDS011;34866;48.670;18.260;2023-06-10T18:17:22;15.90;;;6.72;;
49051;SDS011;34866;48.670;18.260;2023-06-10T18:19:48;13.25;;;6.10;;